createdAt,value
2023-05-18T00:02:16.130Z,6.90
2023-05-18T00:04:44.228Z,6.80
2023-05-18T00:07:11.196Z,6.90
2023-05-18T00:09:38.043Z,6.80
2023-05-18T00:12:05.720Z,6.70
2023-05-18T00:14:32.843Z,6.70
2023-05-18T00:17:01.978Z,6.60
2023-05-18T00:19:30.120Z,6.60
2023-05-18T00:21:57.611Z,6.60
2023-05-18T00:24:24.581Z,6.50
2023-05-18T00:26:51.507Z,6.50
2023-05-18T00:29:18.446Z,6.50
2023-05-18T00:31:46.035Z,6.50
2023-05-18T00:34:14.612Z,6.40
2023-05-18T00:36:41.933Z,6.50
2023-05-18T00:39:09.594Z,6.40
2023-05-18T00:41:37.106Z,6.30
2023-05-18T00:44:05.125Z,6.30
2023-05-18T00:46:32.713Z,6.30
2023-05-18T00:49:01.893Z,6.30
2023-05-18T00:51:29.541Z,6.20
2023-05-18T00:53:57.520Z,6.10
2023-05-18T00:56:25.036Z,6.10
2023-05-18T00:58:57.395Z,6.00
2023-05-18T01:01:35.000Z,6.00
2023-05-18T01:04:03.581Z,6.00
2023-05-18T01:06:32.999Z,6.00
2023-05-18T01:09:06.928Z,6.00
2023-05-18T01:11:59.297Z,5.90
2023-05-18T01:14:50.927Z,5.80
2023-05-18T01:17:17.837Z,5.80
2023-05-18T01:19:50.517Z,5.90
2023-05-18T01:22:56.502Z,5.80
2023-05-18T01:25:48.889Z,5.70
2023-05-18T01:28:19.889Z,5.70
2023-05-18T01:30:47.081Z,5.60
2023-05-18T01:33:14.430Z,5.60
2023-05-18T01:35:50.770Z,5.70
2023-05-18T01:38:23.599Z,5.80
2023-05-18T01:41:08.477Z,5.80
2023-05-18T01:43:37.081Z,5.70
2023-05-18T01:46:22.890Z,5.70
2023-05-18T01:48:58.579Z,5.70
2023-05-18T01:51:29.679Z,5.60
2023-05-18T01:54:08.131Z,5.60
2023-05-18T01:56:36.393Z,5.50
2023-05-18T01:59:03.647Z,5.40
2023-05-18T02:01:30.878Z,5.40
2023-05-18T02:03:57.942Z,5.30
2023-05-18T02:06:25.159Z,5.30
2023-05-18T02:08:52.307Z,5.20
2023-05-18T02:11:19.162Z,5.20
2023-05-18T02:13:46.173Z,5.20
2023-05-18T02:16:13.798Z,5.20
2023-05-18T02:18:40.789Z,5.20
2023-05-18T02:21:09.501Z,5.20
2023-05-18T02:23:36.541Z,5.20
2023-05-18T02:26:04.055Z,5.20
2023-05-18T02:28:31.205Z,5.10
2023-05-18T02:31:09.840Z,5.20
2023-05-18T02:33:42.799Z,5.20
2023-05-18T02:36:13.761Z,5.10
2023-05-18T02:38:44.696Z,5.10
2023-05-18T02:41:12.092Z,5.00
2023-05-18T02:43:39.177Z,4.90
2023-05-18T02:46:06.334Z,4.80
2023-05-18T02:48:33.841Z,4.80
2023-05-18T02:51:00.875Z,4.80
2023-05-18T02:53:27.899Z,4.80
2023-05-18T02:55:58.926Z,4.80
2023-05-18T02:58:26.053Z,4.80
2023-05-18T03:00:55.246Z,4.80
2023-05-18T03:03:24.291Z,4.70
2023-05-18T03:05:54.243Z,4.70
2023-05-18T03:08:22.997Z,4.60
2023-05-18T03:10:50.547Z,4.60
2023-05-18T03:13:17.436Z,4.50
2023-05-18T03:15:47.505Z,4.50
2023-05-18T03:18:14.875Z,4.50
2023-05-18T03:20:41.892Z,4.50
2023-05-18T03:23:08.809Z,4.50
2023-05-18T03:25:37.440Z,4.50
2023-05-18T03:28:05.532Z,4.40
2023-05-18T03:30:33.836Z,4.40
2023-05-18T03:33:01.959Z,4.40
2023-05-18T03:35:29.590Z,4.40
2023-05-18T03:37:56.666Z,4.30
2023-05-18T03:40:25.082Z,4.30
2023-05-18T03:42:52.057Z,4.30
2023-05-18T03:45:19.156Z,4.30
2023-05-18T03:47:46.232Z,4.30
2023-05-18T03:50:13.588Z,4.30
2023-05-18T03:52:41.724Z,4.30
2023-05-18T03:55:09.352Z,4.30
2023-05-18T03:57:36.206Z,4.30
2023-05-18T04:00:09.366Z,4.30
2023-05-18T04:02:36.690Z,4.30
2023-05-18T04:05:04.432Z,4.20
2023-05-18T04:07:31.238Z,4.20
2023-05-18T04:09:58.056Z,4.20
2023-05-18T04:12:24.916Z,4.20
2023-05-18T04:14:54.332Z,4.30
2023-05-18T04:17:24.217Z,4.30
2023-05-18T04:19:51.286Z,4.30
2023-05-18T04:22:18.691Z,4.30
2023-05-18T04:24:48.364Z,4.30
2023-05-18T04:27:15.514Z,4.30
2023-05-18T04:29:44.015Z,4.40
2023-05-18T04:32:11.556Z,4.50
2023-05-18T04:34:38.847Z,4.50
2023-05-18T04:37:06.172Z,4.50
2023-05-18T04:39:34.779Z,4.60
2023-05-18T04:42:01.965Z,4.70
2023-05-18T04:44:29.733Z,4.70
2023-05-18T04:46:56.990Z,4.80
2023-05-18T04:49:23.895Z,5.00
2023-05-18T04:51:55.729Z,5.00
2023-05-18T04:54:24.409Z,5.20
2023-05-18T04:56:52.519Z,5.20
2023-05-18T04:59:19.932Z,5.20
2023-05-18T05:01:47.191Z,5.30
2023-05-18T05:04:14.526Z,5.30
2023-05-18T05:06:41.425Z,5.40
2023-05-18T05:09:08.290Z,5.40
2023-05-18T05:11:35.276Z,5.50
2023-05-18T05:14:03.002Z,5.50
2023-05-18T05:16:30.052Z,5.60
2023-05-18T05:18:57.183Z,5.60
2023-05-18T05:21:25.785Z,5.60
2023-05-18T05:23:53.106Z,5.60
2023-05-18T05:26:21.726Z,5.70
2023-05-18T05:28:48.748Z,5.80
2023-05-18T05:31:15.628Z,5.90
2023-05-18T05:33:43.185Z,6.10
2023-05-18T05:36:09.938Z,6.20
2023-05-18T05:38:37.144Z,6.20
2023-05-18T05:41:04.014Z,6.20
2023-05-18T05:43:30.983Z,6.40
2023-05-18T05:45:57.935Z,6.50
2023-05-18T05:48:24.773Z,6.70
2023-05-18T05:50:51.644Z,6.80
2023-05-18T05:53:19.954Z,6.90
2023-05-18T05:55:46.929Z,7.10
2023-05-18T05:58:13.833Z,7.40
2023-05-18T06:00:40.888Z,7.50
2023-05-18T06:03:08.404Z,7.60
2023-05-18T06:05:35.679Z,7.60
2023-05-18T06:08:02.942Z,7.80
2023-05-18T06:10:31.241Z,7.80
2023-05-18T06:12:58.859Z,7.70
2023-05-18T06:15:25.759Z,8.00
2023-05-18T06:17:52.581Z,8.20
2023-05-18T06:20:19.458Z,8.30
2023-05-18T06:22:46.928Z,8.20
2023-05-18T06:25:13.858Z,8.20
2023-05-18T06:27:42.457Z,8.20
2023-05-18T06:30:11.145Z,8.30
2023-05-18T06:32:38.396Z,8.40
2023-05-18T06:35:06.530Z,8.50
2023-05-18T06:37:33.582Z,8.50
2023-05-18T06:40:00.650Z,8.50
2023-05-18T06:42:27.554Z,8.80
2023-05-18T06:44:54.747Z,8.80
2023-05-18T06:47:21.848Z,9.00
2023-05-18T06:49:48.710Z,8.90
2023-05-18T06:52:15.619Z,8.80
2023-05-18T06:54:42.450Z,9.00
2023-05-18T06:57:09.472Z,9.10
2023-05-18T06:59:36.398Z,9.30
2023-05-18T07:02:04.473Z,9.40
2023-05-18T07:04:31.599Z,9.20
2023-05-18T07:06:58.588Z,9.30
2023-05-18T07:09:26.272Z,9.30
2023-05-18T07:11:53.195Z,9.60
2023-05-18T07:14:20.118Z,9.40
2023-05-18T07:16:47.621Z,9.40
2023-05-18T07:19:15.317Z,9.30
2023-05-18T07:21:42.519Z,9.60
2023-05-18T07:24:09.357Z,10.00
2023-05-18T07:26:49.364Z,10.20
2023-05-18T07:29:16.548Z,10.30
2023-05-18T07:31:43.528Z,10.50
2023-05-18T07:34:10.486Z,10.40
2023-05-18T07:36:37.412Z,10.40
2023-05-18T07:39:04.335Z,10.60
2023-05-18T07:41:34.068Z,10.80
2023-05-18T07:44:01.268Z,10.80
2023-05-18T07:46:28.437Z,10.90
2023-05-18T07:48:55.829Z,10.90
2023-05-18T07:53:58.239Z,11.00
2023-05-18T07:56:26.065Z,11.10
2023-05-18T07:58:52.963Z,11.00
2023-05-18T08:01:20.925Z,10.80
2023-05-18T08:03:47.895Z,10.90
2023-05-18T08:06:14.851Z,11.20
2023-05-18T08:08:41.734Z,11.50
2023-05-18T08:11:08.553Z,11.90
2023-05-18T08:13:35.380Z,11.80
2023-05-18T08:16:11.057Z,12.20
2023-05-18T08:18:39.049Z,12.40
2023-05-18T08:21:09.249Z,12.50
2023-05-18T08:23:36.763Z,12.40
2023-05-18T08:26:03.956Z,12.40
2023-05-18T08:28:31.723Z,12.40
2023-05-18T08:30:59.042Z,12.30
2023-05-18T08:33:26.432Z,12.30
2023-05-18T08:35:54.111Z,12.30
2023-05-18T08:38:21.148Z,12.30
2023-05-18T08:41:08.622Z,12.30
2023-05-18T08:43:40.315Z,12.60
2023-05-18T08:46:20.498Z,12.80
2023-05-18T08:48:47.809Z,12.80
2023-05-18T08:51:20.128Z,12.80
2023-05-18T08:53:52.766Z,12.80
2023-05-18T08:56:24.922Z,12.80
2023-05-18T08:58:56.733Z,13.00
2023-05-18T09:01:31.764Z,13.00
2023-05-18T09:03:59.897Z,12.80
2023-05-18T09:06:28.433Z,12.90
2023-05-18T09:08:58.438Z,12.70
2023-05-18T09:11:27.965Z,12.90
2023-05-18T09:13:55.463Z,13.20
2023-05-18T09:16:22.346Z,13.60
2023-05-18T09:18:49.558Z,13.60
2023-05-18T09:21:16.805Z,13.70
2023-05-18T09:23:44.925Z,13.80
2023-05-18T09:26:13.666Z,13.70
2023-05-18T09:28:42.756Z,13.90
2023-05-18T09:31:16.368Z,14.20
2023-05-18T09:33:44.545Z,14.30
2023-05-18T09:36:15.863Z,14.60
2023-05-18T09:38:46.920Z,14.50
2023-05-18T09:41:17.814Z,14.50
2023-05-18T09:43:51.546Z,14.60
2023-05-18T09:46:22.165Z,15.00
2023-05-18T09:48:54.247Z,15.20
2023-05-18T09:51:25.519Z,15.10
2023-05-18T09:53:58.170Z,15.10
2023-05-18T09:56:27.108Z,14.90
2023-05-18T09:58:54.607Z,14.70
2023-05-18T10:01:21.856Z,14.50
2023-05-18T10:03:49.862Z,15.10
2023-05-18T10:06:21.404Z,15.20
2023-05-18T10:08:48.859Z,15.40
2023-05-18T10:11:21.991Z,15.50
2023-05-18T10:13:55.323Z,15.70
2023-05-18T10:16:24.741Z,15.80
2023-05-18T10:18:54.673Z,15.30
2023-05-18T10:21:24.573Z,15.40
2023-05-18T10:23:52.515Z,15.50
2023-05-18T10:26:23.204Z,15.70
2023-05-18T10:28:52.990Z,15.70
2023-05-18T10:31:22.137Z,15.60
2023-05-18T10:33:50.840Z,15.80
2023-05-18T10:36:18.018Z,15.70
2023-05-18T10:38:46.849Z,15.90
2023-05-18T10:41:14.178Z,16.10
2023-05-18T10:43:42.325Z,15.70
2023-05-18T10:46:10.100Z,16.00
2023-05-18T10:48:40.527Z,16.20
2023-05-18T10:51:08.579Z,16.60
2023-05-18T10:53:36.679Z,16.50
2023-05-18T10:56:04.276Z,16.10
2023-05-18T10:58:32.974Z,16.40
2023-05-18T11:01:01.948Z,16.30
2023-05-18T11:03:29.161Z,16.80
2023-05-18T11:06:11.047Z,16.60
2023-05-18T11:08:47.928Z,16.30
2023-05-18T11:11:17.972Z,16.40
2023-05-18T11:13:49.350Z,16.70
2023-05-18T11:16:17.642Z,16.80
2023-05-18T11:18:45.747Z,17.00
2023-05-18T11:21:20.156Z,17.40
2023-05-18T11:24:08.742Z,17.50
2023-05-18T11:26:41.274Z,17.70
2023-05-18T11:29:22.571Z,17.90
2023-05-18T11:31:52.665Z,18.30
2023-05-18T11:34:45.450Z,18.40
2023-05-18T11:37:35.191Z,16.90
2023-05-18T11:40:05.729Z,17.30
2023-05-18T11:42:36.325Z,17.40
2023-05-18T11:45:11.398Z,17.80
2023-05-18T11:47:41.091Z,18.20
2023-05-18T11:50:11.454Z,18.20
2023-05-18T11:52:49.195Z,18.20
2023-05-18T11:55:19.232Z,18.60
2023-05-18T11:57:50.104Z,18.60
2023-05-18T12:00:18.444Z,18.30
2023-05-18T12:02:46.961Z,17.90
2023-05-18T12:05:14.761Z,18.10
2023-05-18T12:07:42.631Z,18.40
2023-05-18T12:10:11.446Z,18.10
2023-05-18T12:12:39.952Z,18.10
2023-05-18T12:15:09.269Z,17.40
2023-05-18T12:17:43.725Z,17.80
2023-05-18T12:20:18.939Z,18.30
2023-05-18T12:22:53.429Z,18.30
2023-05-18T12:25:22.028Z,18.10
2023-05-18T12:27:49.792Z,18.30
2023-05-18T12:30:20.828Z,18.70
2023-05-18T12:32:50.866Z,18.90
2023-05-18T12:35:18.093Z,19.10
2023-05-18T12:37:46.576Z,19.50
2023-05-18T12:40:20.594Z,19.50
2023-05-18T12:42:56.883Z,19.40
2023-05-18T12:45:28.145Z,19.10
2023-05-18T12:47:56.233Z,19.00
2023-05-18T12:50:26.579Z,19.30
2023-05-18T12:52:55.868Z,19.80
2023-05-18T12:55:23.352Z,19.40
2023-05-18T12:58:19.113Z,19.60
2023-05-18T13:00:47.810Z,19.70
2023-05-18T13:03:16.765Z,20.20
2023-05-18T13:05:45.806Z,20.80
2023-05-18T13:08:22.411Z,20.30
2023-05-18T13:11:01.220Z,20.70
2023-05-18T13:13:33.175Z,21.50
2023-05-18T13:16:00.817Z,21.90
2023-05-18T13:18:28.334Z,21.60
2023-05-18T13:20:57.153Z,23.10
2023-05-18T13:23:27.742Z,22.70
2023-05-18T13:25:57.382Z,22.60
2023-05-18T13:28:25.277Z,22.40
2023-05-18T13:30:52.546Z,22.20
2023-05-18T13:33:19.598Z,21.90
2023-05-18T13:35:47.224Z,22.10
2023-05-18T13:38:15.018Z,22.20
2023-05-18T13:40:42.251Z,23.90
2023-05-18T13:43:11.145Z,23.70
2023-05-18T13:45:39.671Z,23.30
2023-05-18T13:48:09.952Z,24.20
2023-05-18T13:50:37.626Z,24.20
2023-05-18T13:53:04.805Z,25.40
2023-05-18T13:55:33.252Z,26.00
2023-05-18T13:58:00.886Z,25.80
2023-05-18T14:00:28.056Z,24.90
2023-05-18T14:02:56.903Z,24.40
2023-05-18T14:05:25.060Z,25.80
2023-05-18T14:07:52.654Z,26.70
2023-05-18T14:10:20.123Z,26.50
2023-05-18T14:12:47.448Z,26.20
2023-05-18T14:15:14.814Z,26.20
2023-05-18T14:17:43.164Z,25.70
2023-05-18T14:20:11.247Z,25.20
2023-05-18T14:22:38.603Z,25.00
2023-05-18T14:25:06.116Z,25.60
2023-05-18T14:27:33.161Z,26.50
2023-05-18T14:30:00.189Z,25.90
2023-05-18T14:32:27.415Z,25.40
2023-05-18T14:34:57.827Z,24.80
2023-05-18T14:37:24.975Z,24.50
2023-05-18T14:39:51.919Z,25.80
2023-05-18T14:42:18.673Z,25.90
2023-05-18T14:44:45.889Z,27.20
2023-05-18T14:47:12.794Z,27.90
2023-05-18T14:49:40.129Z,27.20
2023-05-18T14:52:07.042Z,28.90
2023-05-18T14:54:34.028Z,27.90
2023-05-18T14:57:01.401Z,28.30
2023-05-18T14:59:28.301Z,29.00
2023-05-18T15:01:55.274Z,29.00
2023-05-18T15:04:22.215Z,29.60
2023-05-18T15:06:49.926Z,30.00
2023-05-18T15:09:17.337Z,30.30
2023-05-18T15:11:44.338Z,29.70
2023-05-18T15:14:11.213Z,30.20
2023-05-18T15:16:38.946Z,30.40
2023-05-18T15:19:06.338Z,28.90
2023-05-18T15:21:33.354Z,28.00
2023-05-18T15:24:00.545Z,27.30
2023-05-18T15:26:27.774Z,27.10
2023-05-18T15:28:54.841Z,28.10
2023-05-18T15:31:21.788Z,27.60
2023-05-18T15:33:48.688Z,26.80
2023-05-18T15:36:16.117Z,25.80
2023-05-18T15:38:43.050Z,25.90
2023-05-18T15:41:09.896Z,25.60
2023-05-18T15:43:37.562Z,25.30
2023-05-18T15:46:05.276Z,24.80
2023-05-18T15:48:32.543Z,24.20
2023-05-18T15:50:59.435Z,23.30
2023-05-18T15:53:26.434Z,22.50
2023-05-18T15:55:57.807Z,22.10
2023-05-18T15:58:26.644Z,21.50
2023-05-18T16:00:54.153Z,21.50
2023-05-18T16:03:21.457Z,21.60
2023-05-18T16:05:48.462Z,21.00
2023-05-18T16:08:15.414Z,21.10
2023-05-18T16:10:42.525Z,20.60
2023-05-18T16:13:09.470Z,21.40
2023-05-18T16:15:36.612Z,21.90
2023-05-18T16:18:03.888Z,21.70
2023-05-18T16:20:31.107Z,21.70
2023-05-18T16:22:58.884Z,22.30
2023-05-18T16:25:26.477Z,22.60
2023-05-18T16:27:53.414Z,22.50
2023-05-18T16:30:20.335Z,22.90
2023-05-18T16:32:47.320Z,23.00
2023-05-18T16:35:14.187Z,24.00
2023-05-18T16:37:41.063Z,23.20
2023-05-18T16:40:08.524Z,23.10
2023-05-18T16:42:35.907Z,23.10
2023-05-18T16:45:03.098Z,22.70
2023-05-18T16:47:32.699Z,22.20
2023-05-18T16:50:00.751Z,22.30
2023-05-18T16:52:27.877Z,22.50
2023-05-18T16:54:54.804Z,21.80
2023-05-18T16:57:22.125Z,21.50
2023-05-18T16:59:49.240Z,21.90
2023-05-18T17:02:17.828Z,21.40
2023-05-18T17:04:46.116Z,21.90
2023-05-18T17:07:13.402Z,22.00
2023-05-18T17:09:41.657Z,22.10
2023-05-18T17:12:10.555Z,21.80
2023-05-18T17:14:38.259Z,22.10
2023-05-18T17:17:07.026Z,21.70
2023-05-18T17:19:35.272Z,21.40
2023-05-18T17:22:03.300Z,21.20
2023-05-18T17:24:30.366Z,21.20
2023-05-18T17:26:57.464Z,21.10
2023-05-18T17:29:24.361Z,20.90
2023-05-18T17:31:51.247Z,20.60
2023-05-18T17:34:18.245Z,20.30
2023-05-18T17:36:46.187Z,20.10
2023-05-18T17:39:13.456Z,19.80
2023-05-18T17:41:40.368Z,19.80
2023-05-18T17:44:07.285Z,19.60
2023-05-18T17:46:34.293Z,19.20
2023-05-18T17:49:04.990Z,18.90
2023-05-18T17:51:32.143Z,18.90
2023-05-18T17:53:59.190Z,18.80
2023-05-18T17:56:28.151Z,18.50
2023-05-18T17:58:55.562Z,18.40
2023-05-18T18:01:22.507Z,18.30
2023-05-18T18:03:49.614Z,18.20
2023-05-18T18:06:22.317Z,18.10
2023-05-18T18:08:50.349Z,17.90
2023-05-18T18:11:17.721Z,17.90
2023-05-18T18:13:44.635Z,17.70
2023-05-18T18:16:11.646Z,17.70
2023-05-18T18:18:39.131Z,17.70
2023-05-18T18:21:06.679Z,17.60
2023-05-18T18:23:34.504Z,17.40
2023-05-18T18:26:01.944Z,17.40
2023-05-18T18:28:29.552Z,17.30
2023-05-18T18:30:57.370Z,17.10
2023-05-18T18:33:27.558Z,17.00
2023-05-18T18:35:56.544Z,16.90
2023-05-18T18:38:23.644Z,16.90
2023-05-18T18:40:51.306Z,16.90
2023-05-18T18:43:18.238Z,16.80
2023-05-18T18:45:45.110Z,16.60
2023-05-18T18:48:12.309Z,16.50
2023-05-18T18:50:39.374Z,16.40
2023-05-18T18:53:06.907Z,16.40
